createdAt,value
2023-05-05T00:02:27.650Z,7.75
2023-05-05T00:05:15.104Z,7.80
2023-05-05T00:08:04.504Z,7.05
2023-05-05T00:10:53.044Z,9.30
2023-05-05T00:13:40.739Z,9.35
2023-05-05T00:16:30.520Z,7.70
2023-05-05T00:19:17.783Z,12.15
2023-05-05T00:22:07.386Z,9.82
2023-05-05T00:24:54.555Z,6.40
2023-05-05T00:27:44.207Z,8.38
2023-05-05T00:30:31.839Z,8.60
2023-05-05T00:33:21.596Z,9.15
2023-05-05T00:36:09.383Z,9.93
2023-05-05T00:38:59.232Z,9.25
2023-05-05T00:41:46.294Z,8.20
2023-05-05T00:44:41.686Z,9.52
2023-05-05T00:47:29.334Z,6.57
2023-05-05T00:50:25.943Z,7.93
2023-05-05T00:53:13.812Z,7.70
2023-05-05T00:56:01.056Z,8.00
2023-05-05T00:58:50.850Z,17.15
2023-05-05T01:01:38.312Z,12.93
2023-05-05T01:04:28.036Z,11.82
2023-05-05T01:07:17.981Z,8.88
2023-05-05T01:10:33.136Z,8.10
2023-05-05T01:13:53.384Z,11.90
2023-05-05T01:16:59.754Z,9.57
2023-05-05T01:19:59.114Z,9.82
2023-05-05T01:22:47.681Z,8.32
2023-05-05T01:26:05.360Z,7.30
2023-05-05T01:29:20.904Z,9.93
2023-05-05T01:32:16.678Z,10.15
2023-05-05T01:35:14.243Z,8.32
2023-05-05T01:38:17.235Z,7.80
2023-05-05T01:41:30.306Z,7.38
2023-05-05T01:47:06.896Z,10.32
2023-05-05T01:49:54.649Z,8.52
2023-05-05T01:52:46.388Z,11.57
2023-05-05T01:55:35.001Z,11.83
2023-05-05T01:58:23.667Z,9.18
2023-05-05T02:01:12.726Z,8.07
2023-05-05T02:04:04.649Z,9.38
2023-05-05T02:06:53.473Z,10.93
2023-05-05T02:09:42.557Z,7.40
2023-05-05T02:12:34.278Z,7.60
2023-05-05T02:15:25.766Z,4.53
2023-05-05T02:18:16.489Z,6.53
2023-05-05T02:21:04.611Z,7.03
2023-05-05T02:23:52.696Z,9.30
2023-05-05T02:26:42.292Z,6.68
2023-05-05T02:29:41.461Z,12.55
2023-05-05T02:32:36.826Z,6.10
2023-05-05T02:35:37.412Z,7.72
2023-05-05T02:38:29.402Z,10.15
2023-05-05T02:41:22.049Z,9.27
2023-05-05T02:44:12.860Z,7.63
2023-05-05T02:47:00.055Z,10.25
2023-05-05T02:49:49.527Z,8.23
2023-05-05T02:52:37.171Z,6.47
2023-05-05T02:55:26.073Z,7.97
2023-05-05T02:58:24.715Z,10.70
2023-05-05T03:01:32.582Z,7.25
2023-05-05T03:04:30.748Z,10.25
2023-05-05T03:08:00.308Z,10.23
2023-05-05T03:11:08.929Z,9.57
2023-05-05T03:14:18.656Z,6.63
2023-05-05T03:17:06.947Z,7.60
2023-05-05T03:19:54.933Z,7.55
2023-05-05T03:22:42.077Z,7.22
2023-05-05T03:25:49.274Z,8.18
2023-05-05T03:28:36.441Z,6.38
2023-05-05T03:31:26.091Z,6.93
2023-05-05T03:34:13.404Z,7.28
2023-05-05T03:37:00.986Z,8.68
2023-05-05T03:39:50.417Z,7.78
2023-05-05T03:42:37.635Z,7.63
2023-05-05T03:45:25.235Z,8.00
2023-05-05T03:48:12.460Z,8.68
2023-05-05T03:51:01.845Z,6.28
2023-05-05T03:53:49.023Z,10.70
2023-05-05T03:56:36.263Z,7.68
2023-05-05T03:59:23.487Z,7.50
2023-05-05T04:02:10.674Z,8.82
2023-05-05T04:04:58.296Z,6.85
2023-05-05T04:07:45.539Z,9.02
2023-05-05T04:10:32.900Z,5.47
2023-05-05T04:13:20.234Z,6.70
2023-05-05T04:16:08.962Z,5.78
2023-05-05T04:18:56.146Z,7.13
2023-05-05T04:21:43.920Z,5.00
2023-05-05T04:24:31.249Z,7.10
2023-05-05T04:27:21.104Z,7.68
2023-05-05T04:30:11.346Z,8.55
2023-05-05T04:33:01.095Z,8.82
2023-05-05T04:35:48.826Z,7.70
2023-05-05T04:38:36.868Z,5.90
2023-05-05T04:41:24.174Z,6.00
2023-05-05T04:44:11.304Z,10.77
2023-05-05T04:47:00.404Z,9.38
2023-05-05T04:49:47.691Z,5.90
2023-05-05T04:52:34.917Z,5.75
2023-05-05T04:55:22.050Z,5.82
2023-05-05T04:58:09.255Z,5.43
2023-05-05T05:00:56.469Z,8.15
2023-05-05T05:03:44.011Z,9.80
2023-05-05T05:06:33.575Z,11.40
2023-05-05T05:09:20.854Z,9.32
2023-05-05T05:12:10.187Z,8.43
2023-05-05T05:15:02.132Z,9.68
2023-05-05T05:17:49.481Z,10.18
2023-05-05T05:20:41.218Z,7.93
2023-05-05T05:23:28.355Z,6.77
2023-05-05T05:26:16.519Z,5.72
2023-05-05T05:29:07.373Z,7.07
2023-05-05T05:31:54.597Z,8.75
2023-05-05T05:34:42.395Z,9.40
2023-05-05T05:37:31.133Z,5.60
2023-05-05T05:40:23.139Z,7.32
2023-05-05T05:43:12.990Z,5.78
2023-05-05T05:46:02.478Z,6.10
2023-05-05T05:48:49.710Z,6.38
2023-05-05T05:51:36.959Z,3.83
2023-05-05T05:54:24.179Z,3.97
2023-05-05T05:57:11.552Z,5.00
2023-05-05T06:00:00.483Z,6.03
2023-05-05T06:02:49.170Z,5.07
2023-05-05T06:05:38.511Z,6.50
2023-05-05T06:08:27.997Z,5.00
2023-05-05T06:11:15.296Z,4.63
2023-05-05T06:14:02.560Z,7.10
2023-05-05T06:16:49.856Z,5.50
2023-05-05T06:19:39.890Z,5.50
2023-05-05T06:22:27.171Z,4.82
2023-05-05T06:25:14.452Z,6.07
2023-05-05T06:28:05.745Z,7.93
2023-05-05T06:30:53.119Z,4.70
2023-05-05T06:33:40.319Z,3.97
2023-05-05T06:36:30.005Z,9.30
2023-05-05T06:39:17.642Z,7.05
2023-05-05T06:42:07.197Z,5.95
2023-05-05T06:44:54.692Z,7.57
2023-05-05T06:47:42.878Z,5.13
2023-05-05T06:50:30.358Z,4.97
2023-05-05T06:53:17.915Z,4.80
2023-05-05T06:56:05.679Z,2.88
2023-05-05T06:58:52.994Z,4.47
2023-05-05T07:01:41.672Z,2.78
2023-05-05T07:04:29.206Z,6.60
2023-05-05T07:07:16.954Z,5.05
2023-05-05T07:10:04.910Z,5.25
2023-05-05T07:12:56.166Z,3.42
2023-05-05T07:15:46.830Z,7.90
2023-05-05T07:18:34.296Z,5.53
2023-05-05T07:21:23.826Z,6.88
2023-05-05T07:24:11.216Z,4.90
2023-05-05T07:26:59.355Z,4.72
2023-05-05T07:29:46.812Z,4.47
2023-05-05T07:32:38.439Z,3.72
2023-05-05T07:35:26.577Z,4.93
2023-05-05T07:38:14.193Z,6.97
2023-05-05T07:41:01.545Z,6.15
2023-05-05T07:43:49.048Z,5.35
2023-05-05T07:46:36.727Z,4.22
2023-05-05T07:49:26.984Z,5.05
2023-05-05T07:52:14.410Z,6.55
2023-05-05T07:55:01.978Z,10.77
2023-05-05T07:57:49.896Z,7.63
2023-05-05T08:00:37.284Z,6.05
2023-05-05T08:03:27.718Z,7.75
2023-05-05T08:06:16.933Z,7.85
2023-05-05T08:09:07.804Z,9.52
2023-05-05T08:11:55.109Z,9.13
2023-05-05T08:14:44.945Z,10.93
2023-05-05T08:17:47.835Z,9.18
2023-05-05T08:20:35.343Z,6.70
2023-05-05T08:23:22.865Z,7.57
2023-05-05T08:26:10.308Z,8.73
2023-05-05T08:29:00.901Z,11.25
2023-05-05T08:31:48.751Z,10.25
2023-05-05T08:34:36.275Z,7.90
2023-05-05T08:37:23.700Z,5.82
2023-05-05T08:40:16.415Z,9.05
2023-05-05T08:45:59.930Z,6.70
2023-05-05T08:48:49.869Z,9.23
2023-05-05T08:51:42.429Z,10.15
2023-05-05T08:57:25.228Z,5.00
2023-05-05T09:00:16.601Z,5.63
2023-05-05T09:03:05.938Z,5.65
2023-05-05T09:05:53.792Z,7.97
2023-05-05T09:08:43.736Z,8.02
2023-05-05T09:11:32.644Z,6.25
2023-05-05T09:14:20.120Z,7.97
2023-05-05T09:17:22.054Z,6.35
2023-05-05T09:20:15.577Z,7.90
2023-05-05T09:23:20.061Z,5.88
2023-05-05T09:26:12.969Z,6.45
2023-05-05T09:29:04.560Z,5.55
2023-05-05T09:32:09.056Z,5.35
2023-05-05T09:35:02.635Z,8.02
2023-05-05T09:37:50.251Z,7.50
2023-05-05T09:40:51.413Z,4.15
2023-05-05T09:43:52.262Z,3.70
2023-05-05T09:46:51.144Z,4.00
2023-05-05T09:49:39.012Z,5.30
2023-05-05T09:52:28.481Z,6.22
2023-05-05T10:00:40.041Z,4.05
2023-05-05T10:03:28.953Z,2.92
2023-05-05T10:06:16.488Z,5.03
2023-05-05T10:09:03.778Z,3.53
2023-05-05T10:11:51.524Z,5.25
2023-05-05T10:14:38.874Z,3.67
2023-05-05T10:17:32.835Z,4.50
2023-05-05T10:20:24.424Z,2.72
2023-05-05T10:23:17.486Z,4.37
2023-05-05T10:26:07.667Z,4.60
2023-05-05T10:29:05.793Z,3.63
2023-05-05T10:31:56.714Z,5.43
2023-05-05T10:35:02.868Z,5.50
2023-05-05T10:37:52.367Z,4.00
2023-05-05T10:40:48.807Z,4.03
2023-05-05T10:43:39.033Z,3.88
2023-05-05T10:46:30.009Z,3.30
2023-05-05T10:49:45.179Z,5.20
2023-05-05T10:52:43.213Z,4.72
2023-05-05T10:55:45.569Z,6.22
2023-05-05T10:58:43.703Z,5.93
2023-05-05T11:01:39.542Z,3.83
2023-05-05T11:04:29.108Z,8.27
2023-05-05T11:07:23.853Z,6.68
2023-05-05T11:10:13.251Z,3.63
2023-05-05T11:13:02.595Z,4.47
2023-05-05T11:15:52.053Z,2.83
2023-05-05T11:18:40.218Z,3.70
2023-05-05T11:21:27.986Z,4.18
2023-05-05T11:24:33.535Z,3.05
2023-05-05T11:27:20.826Z,4.32
2023-05-05T11:30:09.889Z,4.63
2023-05-05T11:33:32.056Z,1.95
2023-05-05T11:36:21.142Z,2.20
2023-05-05T11:39:19.201Z,2.47
2023-05-05T11:42:27.444Z,3.55
2023-05-05T11:45:25.011Z,2.83
2023-05-05T11:48:27.314Z,2.53
2023-05-05T11:51:18.726Z,5.78
2023-05-05T11:54:08.725Z,2.47
2023-05-05T11:57:10.349Z,3.10
2023-05-05T12:00:09.605Z,5.45
2023-05-05T12:02:59.989Z,4.00
2023-05-05T12:05:53.673Z,3.15
2023-05-05T12:08:41.881Z,2.90
2023-05-05T12:11:29.311Z,3.70
2023-05-05T12:14:21.580Z,4.43
2023-05-05T12:17:11.556Z,3.67
2023-05-05T12:19:58.926Z,4.90
2023-05-05T12:22:46.514Z,2.80
2023-05-05T12:25:39.264Z,2.95
2023-05-05T12:28:46.563Z,4.15
2023-05-05T12:31:41.641Z,3.60
2023-05-05T12:34:29.517Z,3.42
2023-05-05T12:37:19.296Z,3.60
2023-05-05T12:40:48.203Z,2.95
2023-05-05T12:43:35.984Z,4.65
2023-05-05T12:46:23.950Z,2.92
2023-05-05T12:49:11.637Z,4.40
2023-05-05T12:52:01.873Z,4.05
2023-05-05T12:55:07.757Z,1.67
2023-05-05T12:58:04.691Z,2.10
2023-05-05T13:01:11.121Z,2.30
2023-05-05T13:04:07.864Z,4.07
2023-05-05T13:07:14.416Z,1.55
2023-05-05T13:10:10.648Z,2.13
2023-05-05T13:12:58.608Z,2.80
2023-05-05T13:15:46.131Z,3.58
2023-05-05T13:18:46.781Z,3.28
2023-05-05T13:21:34.355Z,2.00
2023-05-05T13:24:38.135Z,4.90
2023-05-05T13:27:34.524Z,2.47
2023-05-05T13:30:21.746Z,1.33
2023-05-05T13:33:08.903Z,2.45
2023-05-05T13:35:56.348Z,3.50
2023-05-05T13:38:43.677Z,3.35
2023-05-05T13:41:33.255Z,5.03
2023-05-05T13:44:20.795Z,3.80
2023-05-05T13:47:08.475Z,3.13
2023-05-05T13:49:58.134Z,4.95
2023-05-05T13:52:45.421Z,2.72
2023-05-05T13:55:32.601Z,1.58
2023-05-05T13:58:19.944Z,2.83
2023-05-05T14:01:10.765Z,3.22
2023-05-05T14:04:02.184Z,2.13
2023-05-05T14:06:54.018Z,3.30
2023-05-05T14:09:43.655Z,3.13
2023-05-05T14:23:21.075Z,5.30
2023-05-05T14:26:09.058Z,3.80
2023-05-05T14:28:56.658Z,4.80
2023-05-05T14:31:44.223Z,6.18
2023-05-05T14:34:33.817Z,3.40
2023-05-05T14:37:20.957Z,6.88
2023-05-05T14:40:08.739Z,4.13
2023-05-05T14:42:55.894Z,3.72
2023-05-05T14:45:44.356Z,2.80
2023-05-05T14:48:32.306Z,3.45
2023-05-05T14:51:19.612Z,3.70
2023-05-05T14:54:14.312Z,2.80
2023-05-05T14:57:08.139Z,7.25
2023-05-05T14:59:57.401Z,4.22
2023-05-05T15:02:44.799Z,5.35
2023-05-05T15:05:32.103Z,3.05
2023-05-05T15:08:22.088Z,5.05
2023-05-05T15:11:11.574Z,7.07
2023-05-05T15:13:58.826Z,4.03
2023-05-05T15:16:48.340Z,4.63
2023-05-05T15:19:37.710Z,3.78
2023-05-05T15:22:24.917Z,6.07
2023-05-05T15:25:14.819Z,2.72
2023-05-05T15:28:03.004Z,4.35
2023-05-05T15:30:50.606Z,3.03
2023-05-05T15:33:37.863Z,3.88
2023-05-05T15:36:28.657Z,3.00
2023-05-05T15:39:15.862Z,4.20
2023-05-05T15:42:03.940Z,4.20
2023-05-05T15:44:56.672Z,8.02
2023-05-05T15:47:46.774Z,9.30
2023-05-05T15:50:34.419Z,9.23
2023-05-05T15:53:21.622Z,15.20
2023-05-05T15:56:08.854Z,9.43
2023-05-05T15:58:56.922Z,10.88
2023-05-05T16:01:46.883Z,10.55
2023-05-05T16:04:34.433Z,11.63
2023-05-05T16:07:21.963Z,12.80
2023-05-05T16:10:14.392Z,13.32
2023-05-05T16:13:04.533Z,14.63
2023-05-05T16:15:52.083Z,15.52
2023-05-05T16:18:40.069Z,16.55
2023-05-05T16:21:32.275Z,12.85
2023-05-05T16:24:22.354Z,14.00
2023-05-05T16:27:09.854Z,14.65
2023-05-05T16:29:59.808Z,14.00
2023-05-05T16:32:54.035Z,24.23
2023-05-05T16:35:44.348Z,24.58
2023-05-05T16:38:36.324Z,14.70
2023-05-05T16:41:24.088Z,16.25
2023-05-05T16:44:11.524Z,20.80
2023-05-05T16:46:58.765Z,23.42
2023-05-05T16:49:46.145Z,17.48
2023-05-05T16:52:33.516Z,15.68
2023-05-05T16:55:21.152Z,24.80
2023-05-05T16:58:08.629Z,14.05
2023-05-05T17:00:56.737Z,13.57
2023-05-05T17:03:44.353Z,16.73
2023-05-05T17:06:32.934Z,16.88
2023-05-05T17:09:24.829Z,11.70
2023-05-05T17:12:12.424Z,15.82
2023-05-05T17:14:59.936Z,17.33
2023-05-05T17:17:47.414Z,14.23
2023-05-05T17:20:36.626Z,20.50
2023-05-05T17:23:24.345Z,12.85
2023-05-05T17:26:12.099Z,24.35
2023-05-05T17:29:04.297Z,16.52
2023-05-05T17:31:55.142Z,20.20
2023-05-05T17:34:42.416Z,20.30
2023-05-05T17:37:30.223Z,11.98
2023-05-05T17:40:19.899Z,15.27
2023-05-05T17:43:09.676Z,17.58
2023-05-05T17:45:59.147Z,12.20
2023-05-05T17:48:46.939Z,16.08
2023-05-05T17:51:39.381Z,11.20
2023-05-05T17:54:27.385Z,16.20
2023-05-05T17:57:17.700Z,11.80
2023-05-05T18:00:09.228Z,14.55
2023-05-05T18:03:00.502Z,13.55
2023-05-05T18:05:55.299Z,13.45
2023-05-05T18:08:45.427Z,12.73
2023-05-05T18:11:35.503Z,8.88
2023-05-05T18:14:27.041Z,12.10
2023-05-05T18:17:21.348Z,10.30
2023-05-05T18:20:09.359Z,11.27
2023-05-05T18:22:56.744Z,11.60
2023-05-05T18:25:45.678Z,11.05
2023-05-05T18:28:37.302Z,7.57
2023-05-05T18:31:25.069Z,10.23
2023-05-05T18:34:12.486Z,11.52
2023-05-05T18:37:00.573Z,10.93
2023-05-05T18:39:47.979Z,13.82
2023-05-05T18:42:35.695Z,16.10
2023-05-05T18:45:23.237Z,14.88
2023-05-05T18:48:13.103Z,12.18
2023-05-05T18:51:04.709Z,13.57
2023-05-05T18:53:52.112Z,17.88
2023-05-05T18:56:39.453Z,20.15
2023-05-05T18:59:27.512Z,16.73
2023-05-05T19:02:14.950Z,15.70
2023-05-05T19:05:02.666Z,16.67
2023-05-05T19:07:50.363Z,15.60
2023-05-05T19:10:37.901Z,21.25
2023-05-05T19:13:25.451Z,13.80
2023-05-05T19:16:17.179Z,19.30
2023-05-05T19:19:04.560Z,11.47
2023-05-05T19:21:54.065Z,23.60
2023-05-05T19:24:41.303Z,21.73
2023-05-05T19:27:28.603Z,21.48
2023-05-05T19:30:18.403Z,18.75
2023-05-05T19:33:09.115Z,16.38
2023-05-05T19:35:56.706Z,22.02
2023-05-05T19:38:46.511Z,19.02
2023-05-05T19:41:35.599Z,16.73
2023-05-05T19:44:22.932Z,17.30
2023-05-05T19:47:11.051Z,19.48
2023-05-05T19:49:58.436Z,20.45
2023-05-05T19:52:45.957Z,16.83
2023-05-05T19:55:33.382Z,16.23
2023-05-05T19:58:23.029Z,16.75
2023-05-05T20:01:12.839Z,17.55
2023-05-05T20:04:00.808Z,16.70
2023-05-05T20:06:48.404Z,15.50
2023-05-05T20:09:37.825Z,19.45
2023-05-05T20:12:30.149Z,21.20
2023-05-05T20:15:20.484Z,16.63
2023-05-05T20:18:07.866Z,16.98
2023-05-05T20:20:56.417Z,14.07
2023-05-05T20:23:45.300Z,15.30
2023-05-05T20:26:32.719Z,18.40
2023-05-05T20:29:20.421Z,20.90
2023-05-05T20:32:07.842Z,12.38
2023-05-05T20:34:54.955Z,17.20
2023-05-05T20:37:42.238Z,28.13
2023-05-05T20:40:30.224Z,20.75
2023-05-05T20:43:19.619Z,17.88
2023-05-05T20:46:13.106Z,19.27
2023-05-05T20:49:00.820Z,21.77
2023-05-05T20:51:48.939Z,17.30
2023-05-05T20:54:36.207Z,17.27
2023-05-05T20:57:26.024Z,14.48
2023-05-05T21:00:15.700Z,15.95
2023-05-05T21:03:03.082Z,15.27
2023-05-05T21:05:55.249Z,18.58
2023-05-05T21:08:42.533Z,16.00
2023-05-05T21:11:29.731Z,19.60
2023-05-05T21:14:16.957Z,19.30
2023-05-05T21:17:04.171Z,18.35
2023-05-05T21:19:54.346Z,17.60
2023-05-05T21:22:41.627Z,21.35
2023-05-05T21:25:31.388Z,23.88
2023-05-05T21:28:20.926Z,15.27
2023-05-05T21:31:21.027Z,19.90
2023-05-05T21:34:09.420Z,16.70
2023-05-05T21:36:57.253Z,33.47
2023-05-05T21:39:44.805Z,19.80
2023-05-05T21:42:32.026Z,25.67
2023-05-05T21:45:19.240Z,19.65
2023-05-05T21:48:06.907Z,16.20
2023-05-05T21:50:54.570Z,16.42
2023-05-05T21:53:41.871Z,15.57
2023-05-05T21:56:29.091Z,18.35
2023-05-05T21:59:17.163Z,15.05
2023-05-05T22:02:04.620Z,19.50
2023-05-05T22:04:52.024Z,12.43
2023-05-05T22:07:42.133Z,13.35
2023-05-05T22:10:29.288Z,11.18
2023-05-05T22:13:16.639Z,15.05
2023-05-05T22:16:04.015Z,13.88
2023-05-05T22:18:51.623Z,19.17
2023-05-05T22:21:44.085Z,13.40
2023-05-05T22:24:35.737Z,17.70
2023-05-05T22:27:22.999Z,21.33
2023-05-05T22:30:13.155Z,18.95
2023-05-05T22:33:00.397Z,20.92
2023-05-05T22:35:52.042Z,18.92
2023-05-05T22:38:41.416Z,16.75
2023-05-05T22:41:28.630Z,15.38
2023-05-05T22:44:15.839Z,14.20
2023-05-05T22:47:04.001Z,14.95
2023-05-05T22:49:51.420Z,11.52
2023-05-05T22:52:40.949Z,10.40
2023-05-05T22:55:28.198Z,12.18
2023-05-05T22:58:17.448Z,7.25
2023-05-05T23:01:04.644Z,7.88
2023-05-05T23:03:54.357Z,10.27
2023-05-05T23:06:44.949Z,9.02
2023-05-05T23:09:32.202Z,9.80
2023-05-05T23:12:19.514Z,10.60
2023-05-05T23:15:08.208Z,6.57
2023-05-05T23:17:55.788Z,11.00
2023-05-05T23:20:42.935Z,9.18
2023-05-05T23:23:31.238Z,7.07
2023-05-05T23:26:18.380Z,10.82
2023-05-05T23:29:06.076Z,10.73
2023-05-05T23:31:53.200Z,4.03
2023-05-05T23:34:40.342Z,6.20
2023-05-05T23:37:27.783Z,8.63
2023-05-05T23:40:14.989Z,6.85
2023-05-05T23:43:02.157Z,3.80
2023-05-05T23:45:49.346Z,6.15
2023-05-05T23:48:36.521Z,5.00
2023-05-05T23:51:23.814Z,4.85
2023-05-05T23:54:10.914Z,6.43
2023-05-05T23:57:00.317Z,5.78
2023-05-05T23:59:47.440Z,4.78
